Time;durP1;ratioP1;P1;durP2;ratioP2;P2;SDS_P1;SDS_P2;PMS_P1;PMS_P2;Temp;Humidity;BMP_temperature;BMP_pressure;BME280_temperature;BME280_humidity;BME280_pressure;Samples;Min_cycle;Max_cycle;Signal;HPM_P1;HPM_P2
2023/05/04 07:01:17;;;;;;;1.23;1.13;;;15.40;99.90;18.40;101749.00;;;;6247605;23;20603;-69
2023/05/04 07:03:43;;;;;;;2.87;2.57;;;15.30;99.90;16.40;101847.00;;;;6247797;23;20193;-70
2023/05/04 07:06:32;;;;;;;2.67;1.77;;;14.40;99.90;16.40;101855.00;;;;6221489;23;20143;-70
2023/05/04 07:08:58;;;;;;;1.73;1.57;;;14.30;99.90;16.40;101789.00;;;;6247492;23;20237;-70
2023/05/04 07:11:25;;;;;;;1.43;1.33;;;14.10;99.90;16.60;101825.00;;;;6248015;23;20145;-70
2023/05/04 07:13:51;;;;;;;2.00;1.90;;;14.20;99.90;17.50;101768.00;;;;6247773;23;20285;-70
2023/05/04 07:16:22;;;;;;;2.93;2.63;;;14.60;99.90;17.00;101826.00;;;;6196264;23;20175;-70
2023/05/04 07:18:51;;;;;;;2.37;0.97;;;14.60;99.90;17.80;101804.00;;;;6247785;23;20146;-70
2023/05/04 07:21:17;;;;;;;0.63;0.63;;;14.70;99.90;18.20;101740.00;;;;6247986;23;20231;-70
2023/05/04 07:23:46;;;;;;;1.50;0.97;;;15.10;99.90;18.70;101770.00;;;;6220633;23;20168;-70
2023/05/04 07:26:13;;;;;;;0.87;0.87;;;15.60;99.90;20.30;101734.00;;;;6248090;23;20188;-68
2023/05/04 07:28:42;;;;;;;1.03;1.03;;;16.20;99.90;19.00;101766.00;;;;6220407;23;20160;-68
2023/05/04 07:31:09;;;;;;;1.47;1.37;;;16.10;99.90;19.40;101754.00;;;;6220741;23;20161;-69
2023/05/04 07:33:39;;;;;;;2.38;2.20;;;16.40;99.90;19.00;101770.00;;;;6195958;23;20161;-69
2023/05/04 07:36:10;;;;;;;1.35;1.13;;;16.30;99.90;18.40;101739.00;;;;6220721;23;20216;-69
2023/05/04 07:38:40;;;;;;;2.65;1.25;;;15.90;99.90;18.80;101760.00;;;;6247399;23;20138;-69
2023/05/04 07:41:09;;;;;;;0.22;0.22;;;16.10;99.90;21.00;101738.00;;;;6195892;23;20165;-69
2023/05/04 07:43:46;;;;;;;5.25;2.85;;;16.70;99.90;20.90;101727.00;;;;6221543;23;20172;-69
2023/05/04 07:46:12;;;;;;;2.35;1.20;;;17.30;99.90;20.60;101728.00;;;;6247330;23;20582;-69
2023/05/04 07:48:41;;;;;;;1.52;1.02;;;17.50;99.90;22.00;101783.00;;;;6220725;23;20153;-69
2023/05/04 07:51:13;;;;;;;1.65;1.55;;;18.10;99.90;21.50;101810.00;;;;6195856;23;20375;-68
2023/05/04 07:53:42;;;;;;;0.90;0.90;;;18.10;99.90;23.10;101807.00;;;;6247521;23;20141;-69
2023/05/04 07:56:11;;;;;;;0.90;0.90;;;18.90;99.90;22.50;101787.00;;;;6247724;23;20169;-69
2023/05/04 07:58:45;;;;;;;4.15;3.83;;;19.20;99.90;20.60;101782.00;;;;6195921;23;20219;-69
2023/05/04 08:01:16;;;;;;;0.73;0.73;;;18.90;99.90;22.90;101758.00;;;;6167070;23;20224;-69
2023/05/04 08:03:44;;;;;;;4.80;2.05;;;19.20;99.90;21.90;101768.00;;;;6190957;23;20607;-70
2023/05/04 08:06:11;;;;;;;0.93;0.93;;;18.90;99.90;22.10;101771.00;;;;6190842;23;20150;-69
2023/05/04 08:08:43;;;;;;;1.23;0.93;;;18.90;99.90;21.90;101764.00;;;;6191004;23;20147;-69
2023/05/04 08:11:20;;;;;;;1.48;1.25;;;18.90;99.90;21.60;101767.00;;;;6189946;23;20571;-69
2023/05/04 08:13:49;;;;;;;0.57;0.57;;;18.90;99.90;23.40;101758.00;;;;6190048;23;20154;-70
2023/05/04 08:16:23;;;;;;;0.20;0.20;;;19.90;99.90;23.80;101760.00;;;;6190156;23;20185;-70
2023/05/04 08:18:49;;;;;;;1.92;1.80;;;20.30;99.90;23.50;101750.00;;;;6216934;23;20223;-70
2023/05/04 08:21:18;;;;;;;0.80;0.80;;;20.10;99.90;23.30;101773.00;;;;6190354;23;20583;-69
2023/05/04 08:24:06;;;;;;;0.73;0.73;;;20.20;99.90;23.20;101768.00;;;;6190569;23;20177;-70
2023/05/04 08:26:32;;;;;;;0.65;0.65;;;20.60;99.90;23.30;101727.00;;;;6189959;23;20139;-69
2023/05/04 08:29:06;;;;;;;0.60;0.60;;;20.20;99.90;22.80;101767.00;;;;6190240;23;20154;-70
2023/05/04 08:31:33;;;;;;;2.00;1.63;;;20.10;99.90;24.10;101758.00;;;;6189810;23;20165;-70
2023/05/04 08:33:59;;;;;;;2.40;2.05;;;20.40;99.90;24.60;101761.00;;;;6190200;23;20567;-69
2023/05/04 08:36:26;;;;;;;0.43;0.43;;;20.80;99.90;24.60;101759.00;;;;6189890;23;20241;-70
2023/05/04 08:38:55;;;;;;;3.00;2.00;;;21.00;99.90;23.20;101781.00;;;;6189997;23;20170;-70
2023/05/04 08:41:24;;;;;;;0.45;0.45;;;20.60;99.90;24.10;101761.00;;;;6216499;23;20162;-70
2023/05/04 08:44:32;;;;;;;1.13;1.02;;;20.40;99.90;24.30;101776.00;;;;6190744;23;20174;-69
2023/05/04 08:46:58;;;;;;;1.33;1.30;;;21.70;99.90;23.80;101758.00;;;;6165012;23;20162;-69
2023/05/04 08:49:34;;;;;;;2.90;2.05;;;20.90;99.90;25.40;101763.00;;;;6165033;23;20266;-69
2023/05/04 08:52:02;;;;;;;1.17;0.98;;;21.50;99.90;23.40;101766.00;;;;6189791;23;20149;-70
2023/05/04 08:54:36;;;;;;;1.88;1.77;;;21.10;99.90;24.00;101754.00;;;;6190285;23;20149;-69
2023/05/04 08:57:06;;;;;;;0.10;0.10;;;21.00;99.90;24.80;101736.00;;;;6190101;23;20142;-70
2023/05/04 08:59:32;;;;;;;1.15;1.15;;;21.00;99.90;24.20;101744.00;;;;6193208;23;20617;-69
2023/05/04 09:01:58;;;;;;;1.42;1.38;;;21.40;99.90;26.20;101741.00;;;;6216263;23;20178;-70
2023/05/04 09:04:31;;;;;;;21.80;1.15;;;22.00;99.90;26.50;101737.00;;;;6214837;23;20158;-69
2023/05/04 09:06:57;;;;;;;0.85;0.85;;;22.50;99.90;25.70;101731.00;;;;6189666;23;20168;-70
2023/05/04 09:09:28;;;;;;;1.08;0.98;;;22.80;99.90;25.20;101725.00;;;;6215125;23;20241;-70
2023/05/04 09:12:07;;;;;;;3.58;1.13;;;22.00;99.90;25.20;101730.00;;;;6189896;23;20165;-70
2023/05/04 09:14:35;;;;;;;1.90;1.80;;;22.10;99.90;24.00;101710.00;;;;6214858;23;20177;-69
2023/05/04 09:17:26;;;;;;;0.10;0.10;;;22.00;99.90;26.00;101692.00;;;;6214432;23;20592;-70
2023/05/04 09:20:03;;;;;;;2.63;2.45;;;21.90;99.90;26.60;101691.00;;;;6191544;23;20185;-70
2023/05/04 09:22:33;;;;;;;0.47;0.47;;;22.60;99.90;26.90;101691.00;;;;6214446;23;20169;-70
2023/05/04 09:25:09;;;;;;;0.17;0.17;;;23.10;99.90;26.00;101682.00;;;;6215019;23;20147;-70
2023/05/04 09:27:38;;;;;;;1.08;0.98;;;22.80;99.90;27.20;101682.00;;;;6215921;23;20161;-70
2023/05/04 09:30:05;;;;;;;0.75;0.75;;;23.40;99.90;28.00;101665.00;;;;6189887;23;20165;-70
2023/05/04 09:32:36;;;;;;;1.38;1.25;;;23.90;99.90;26.80;101687.00;;;;6215961;23;20154;-70
2023/05/04 09:35:04;;;;;;;1.77;1.67;;;23.90;99.90;25.20;101677.00;;;;6215144;23;20200;-70
2023/05/04 09:37:30;;;;;;;1.83;1.48;;;22.70;99.90;26.20;101667.00;;;;6214612;23;20200;-70
2023/05/04 09:39:59;;;;;;;1.88;1.75;;;22.80;99.90;26.50;101668.00;;;;6189718;23;20278;-70
2023/05/04 09:42:43;;;;;;;1.98;1.88;;;23.20;99.90;25.70;101663.00;;;;6214377;23;20641;-70
2023/05/04 09:45:09;;;;;;;0.32;0.32;;;22.80;99.90;25.80;101664.00;;;;6214821;23;20138;-69
2023/05/04 09:47:58;;;;;;;3.15;2.00;;;22.50;99.90;26.30;101643.00;;;;6214105;23;20149;-70
2023/05/04 09:50:25;;;;;;;1.65;1.23;;;23.10;99.90;24.60;101667.00;;;;6214581;23;20142;-70
2023/05/04 09:52:59;;;;;;;0.57;0.57;;;22.70;99.90;26.40;101643.00;;;;6189413;23;20202;-70
2023/05/04 09:56:04;;;;;;;1.13;1.13;;;22.80;99.90;27.20;101639.00;;;;6189680;23;20208;-70
2023/05/04 09:58:39;;;;;;;2.45;1.48;;;23.30;99.90;26.90;101629.00;;;;6215274;22;20158;-70
2023/05/04 10:01:05;;;;;;;2.35;2.20;;;23.60;99.90;26.60;101632.00;;;;6189353;23;20563;-69
2023/05/04 10:03:42;;;;;;;2.05;1.15;;;23.50;99.90;26.20;101633.00;;;;6213830;23;20185;-70
2023/05/04 10:06:16;;;;;;;0.75;0.47;;;23.50;99.90;27.30;101621.00;;;;6214248;23;20173;-70
2023/05/04 10:08:42;;;;;;;1.20;1.05;;;23.50;99.90;26.40;101621.00;;;;6214372;23;20146;-70
2023/05/04 10:11:18;;;;;;;1.85;1.70;;;23.80;99.90;27.50;101619.00;;;;6214235;23;20212;-70
2023/05/04 10:13:57;;;;;;;0.80;0.77;;;23.80;99.90;28.00;101567.00;;;;6214321;23;20142;-70
2023/05/04 10:16:56;;;;;;;0.22;0.22;;;24.20;99.90;28.30;101593.00;;;;6214067;23;20149;-70
2023/05/04 10:19:40;;;;;;;0.88;0.82;;;24.40;99.90;29.00;101584.00;;;;6214269;23;20162;-68
2023/05/04 10:33:36;;;;;;;0.75;0.52;;;23.70;99.90;28.00;101594.00;;;;5070039;28;20555;-68
2023/05/04 10:36:03;;;;;;;0.77;0.77;;;24.20;99.90;28.00;101596.00;;;;5048893;28;20186;-68
2023/05/04 10:38:34;;;;;;;5.60;3.53;;;24.50;99.90;28.40;101594.00;;;;5049032;28;20174;-68
2023/05/04 10:41:00;;;;;;;2.05;1.73;;;24.80;99.90;27.30;101552.00;;;;5049286;28;20253;-68
2023/05/04 10:43:31;;;;;;;1.45;1.20;;;24.60;99.90;26.60;101585.00;;;;5048925;28;20182;-68
2023/05/04 10:45:57;;;;;;;2.60;2.50;;;24.00;99.90;27.40;101574.00;;;;5045762;28;20263;-68
2023/05/04 10:48:34;;;;;;;4.53;2.63;;;24.00;99.90;27.00;101584.00;;;;5032073;28;20369;-68
2023/05/04 10:51:00;;;;;;;2.38;2.13;;;24.40;99.90;26.20;101586.00;;;;5048703;28;20189;-68
2023/05/04 10:53:32;;;;;;;1.55;1.42;;;23.70;99.90;27.50;101567.00;;;;5048900;28;20197;-68
2023/05/04 10:56:01;;;;;;;1.08;0.82;;;23.90;99.90;26.90;101573.00;;;;5049936;28;20659;-68
2023/05/04 10:58:28;;;;;;;1.50;1.40;;;23.90;99.90;27.70;101561.00;;;;5049043;28;20240;-68
2023/05/04 11:00:54;;;;;;;2.15;1.95;;;24.20;99.90;27.80;101525.00;;;;5048103;28;20672;-69
2023/05/04 11:03:21;;;;;;;0.82;0.80;;;24.30;99.90;27.60;101559.00;;;;5048724;28;20212;-68
2023/05/04 11:05:51;;;;;;;1.48;1.27;;;24.20;99.90;27.60;101561.00;;;;5049047;28;20659;-68
2023/05/04 11:08:25;;;;;;;1.20;1.08;;;24.20;99.90;28.00;101538.00;;;;5049982;28;20186;-68
2023/05/04 11:11:06;;;;;;;3.42;2.90;;;24.60;99.90;27.40;101518.00;;;;5048539;28;20721;-68
2023/05/04 11:13:47;;;;;;;4.20;1.63;;;24.40;99.90;27.80;101561.00;;;;5047302;28;20504;-68
2023/05/04 11:16:22;;;;;;;2.72;1.25;;;24.40;99.90;27.90;101550.00;;;;5048680;28;20191;-68
2023/05/04 11:18:50;;;;;;;0.25;0.25;;;24.50;99.90;29.10;101533.00;;;;5048286;28;20182;-69
2023/05/04 11:21:28;;;;;;;5.35;1.08;;;25.20;99.90;28.90;101533.00;;;;5048069;28;20672;-67
2023/05/04 11:23:59;;;;;;;3.92;1.58;;;25.80;99.90;27.70;101548.00;;;;5048069;28;20185;-67
2023/05/04 11:26:33;;;;;;;0.45;0.45;;;25.60;99.90;26.70;101539.00;;;;5048610;28;20537;-68
2023/05/04 11:28:59;;;;;;;0.75;0.65;;;24.80;99.90;28.30;101494.00;;;;5047607;28;20711;-68
2023/05/04 11:31:26;;;;;;;3.03;2.75;;;24.90;99.90;28.60;101523.00;;;;5048016;28;20214;-68
2023/05/04 11:34:02;;;;;;;0.75;0.75;;;25.20;99.90;28.00;101515.00;;;;5048829;28;20235;-68
2023/05/04 11:37:05;;;;;;;0.80;0.80;;;25.10;99.90;28.00;101470.00;;;;5048333;28;20178;-68
2023/05/04 11:39:32;;;;;;;1.40;1.10;;;25.10;99.90;28.50;101498.00;;;;5047725;28;20209;-68
2023/05/04 11:41:59;;;;;;;4.55;2.65;;;25.30;99.90;28.20;101479.00;;;;5047916;28;20270;-68
2023/05/04 11:44:25;;;;;;;1.95;1.42;;;25.30;99.90;27.10;101493.00;;;;5035843;28;20248;-68
2023/05/04 11:46:53;;;;;;;0.88;0.82;;;24.80;99.90;28.00;101484.00;;;;5026597;28;20428;-68
2023/05/04 11:49:57;;;;;;;0.52;0.52;;;24.80;99.90;28.90;101456.00;;;;5034557;28;20260;-68
2023/05/04 11:52:24;;;;;;;0.20;0.20;;;25.00;99.90;28.80;101464.00;;;;5034398;28;20234;-68
2023/05/04 11:54:56;;;;;;;5.45;1.20;;;25.20;99.90;27.30;101471.00;;;;5014590;28;20286;-67
2023/05/04 11:57:22;;;;;;;2.13;1.50;;;24.70;99.90;26.90;101468.00;;;;5062637;28;20179;-68
2023/05/04 11:59:49;;;;;;;0.82;0.82;;;24.30;99.90;25.50;101414.00;;;;5034020;28;20556;-68
2023/05/04 12:02:24;;;;;;;1.83;1.13;;;23.50;99.90;26.00;101455.00;;;;5034371;28;20199;-70
2023/05/04 12:04:51;;;;;;;1.48;1.38;;;23.40;99.90;26.50;101459.00;;;;5019464;28;20641;-70
2023/05/04 12:07:17;;;;;;;0.52;0.52;;;23.50;99.90;27.40;101450.00;;;;5031153;28;20187;-68
2023/05/04 12:09:48;;;;;;;0.70;0.65;;;23.80;99.90;27.50;101451.00;;;;5044223;28;20190;-68
2023/05/04 12:12:20;;;;;;;2.85;1.80;;;24.10;99.90;26.90;101455.00;;;;5032676;28;20207;-68
2023/05/04 12:14:55;;;;;;;0.85;0.85;;;23.90;99.90;26.60;101452.00;;;;5034239;28;20187;-68
2023/05/04 12:17:22;;;;;;;1.02;0.93;;;23.70;99.90;27.80;101431.00;;;;5033028;28;20179;-68
2023/05/04 12:19:52;;;;;;;1.30;1.20;;;24.10;99.90;27.40;101443.00;;;;5035086;28;20171;-68
2023/05/04 12:22:39;;;;;;;1.35;0.65;;;24.20;99.90;28.10;101421.00;;;;5026702;28;20183;-68
2023/05/04 12:25:06;;;;;;;1.38;1.35;;;24.30;99.90;27.70;101423.00;;;;5067120;28;20269;-68
2023/05/04 12:27:31;;;;;;;4.80;2.38;;;24.30;99.90;27.60;101370.00;;;;5034830;28;20183;-68
2023/05/04 12:30:06;;;;;;;0.80;0.38;;;24.20;99.90;26.90;101363.00;;;;5034725;28;20194;-68
2023/05/04 12:32:32;;;;;;;3.50;2.45;;;23.80;99.90;27.30;101412.00;;;;5034968;28;20624;-68
2023/05/04 12:34:57;;;;;;;0.70;0.70;;;24.00;99.90;28.10;101416.00;;;;5033889;28;20202;-68
2023/05/04 12:37:23;;;;;;;1.45;1.05;;;24.30;99.90;28.00;101430.00;;;;5033598;28;20189;-68
2023/05/04 12:39:52;;;;;;;2.13;1.63;;;24.50;99.90;27.50;101439.00;;;;5034032;28;20213;-68
2023/05/04 12:42:18;;;;;;;1.08;1.02;;;24.40;99.90;28.10;101425.00;;;;5033252;28;20190;-68
2023/05/04 12:44:47;;;;;;;2.38;1.55;;;24.50;99.90;28.10;101423.00;;;;5033645;28;20714;-68
2023/05/04 12:47:14;;;;;;;2.95;1.55;;;24.60;99.90;28.10;101418.00;;;;5034692;28;20193;-68
2023/05/04 12:49:40;;;;;;;1.88;1.55;;;24.70;99.90;28.00;101419.00;;;;5033736;28;20183;-68
2023/05/04 12:52:06;;;;;;;1.42;1.33;;;24.60;99.90;28.20;101400.00;;;;5016599;28;20622;-68
2023/05/04 12:54:34;;;;;;;1.98;1.75;;;24.60;99.90;27.50;101413.00;;;;5032961;28;20179;-68
2023/05/04 12:57:01;;;;;;;0.45;0.45;;;24.40;99.90;27.70;101414.00;;;;5012886;28;20207;-68
2023/05/04 12:59:27;;;;;;;1.00;1.00;;;24.20;99.90;27.70;101407.00;;;;5046243;28;20205;-68
2023/05/04 13:01:53;;;;;;;0.30;0.30;;;24.40;99.90;28.10;101402.00;;;;5015449;28;20195;-68
2023/05/04 13:04:19;;;;;;;1.17;0.50;;;24.40;99.90;28.20;101403.00;;;;5033485;28;20183;-68
2023/05/04 13:06:45;;;;;;;0.22;0.22;;;24.60;99.90;28.40;101396.00;;;;5032876;28;20575;-68
2023/05/04 13:09:14;;;;;;;0.20;0.20;;;24.90;99.90;28.50;101408.00;;;;5033060;28;20177;-68
2023/05/04 13:11:40;;;;;;;2.17;1.70;;;25.00;99.90;28.50;101398.00;;;;5032593;28;20202;-68
2023/05/04 13:14:08;;;;;;;1.77;1.20;;;25.00;99.90;28.40;101398.00;;;;5034125;28;20679;-68
2023/05/04 13:16:36;;;;;;;0.40;0.40;;;24.80;99.90;28.10;101391.00;;;;5034158;28;20504;-68
2023/05/04 13:19:02;;;;;;;1.48;1.38;;;24.70;99.90;27.50;101356.00;;;;5034139;28;20178;-68
2023/05/04 13:21:28;;;;;;;1.02;0.98;;;24.70;99.90;28.70;101396.00;;;;5034155;28;20187;-68
2023/05/04 13:23:54;;;;;;;3.67;2.42;;;24.80;99.90;28.40;101383.00;;;;5033850;28;20906;-69
2023/05/04 13:26:21;;;;;;;0.30;0.30;;;25.10;99.90;29.50;101332.00;;;;5033633;28;20178;-68
2023/05/04 13:28:49;;;;;;;0.35;0.35;;;25.50;99.90;29.80;101375.00;;;;5032591;28;20178;-68
2023/05/04 13:31:15;;;;;;;2.13;1.83;;;25.90;99.90;28.00;101378.00;;;;5032139;28;20728;-68
2023/05/04 13:33:41;;;;;;;0.52;0.52;;;25.30;99.90;28.80;101374.00;;;;5032954;28;20274;-68
2023/05/04 13:36:07;;;;;;;1.65;1.27;;;25.20;99.90;28.80;101367.00;;;;5032507;28;20241;-68
2023/05/04 13:38:33;;;;;;;2.00;1.35;;;25.30;99.90;28.70;101330.00;;;;5033825;28;20232;-68
2023/05/04 13:41:10;;;;;;;1.10;1.10;;;25.10;99.90;28.40;101351.00;;;;5032320;28;20183;-68
2023/05/04 13:43:37;;;;;;;1.23;1.13;;;25.30;99.90;28.30;101328.00;;;;5030861;28;20701;-68
2023/05/04 13:46:05;;;;;;;1.15;1.05;;;25.10;99.90;28.90;101343.00;;;;5014072;28;20175;-68
2023/05/04 13:48:38;;;;;;;3.38;1.20;;;25.30;99.90;28.60;101331.00;;;;5015982;28;20597;-68
2023/05/04 13:51:04;;;;;;;1.83;1.15;;;25.30;99.90;28.60;101340.00;;;;5032157;28;20580;-68
2023/05/04 13:53:34;;;;;;;3.13;2.13;;;25.30;99.90;27.90;101315.00;;;;5033461;28;20269;-68
2023/05/04 13:56:08;;;;;;;1.73;1.63;;;25.10;99.90;27.90;101322.00;;;;5032433;28;20191;-69
2023/05/04 13:58:34;;;;;;;6.65;1.55;;;24.70;99.90;28.40;101317.00;;;;5032049;28;20252;-69
2023/05/04 14:01:04;;;;;;;0.40;0.40;;;25.00;99.90;28.30;101317.00;;;;5032211;28;20628;-68
2023/05/04 14:03:31;;;;;;;2.08;1.52;;;25.00;99.90;28.40;101294.00;;;;5032157;28;20183;-68
2023/05/04 14:05:57;;;;;;;0.68;0.68;;;25.00;99.90;28.50;101297.00;;;;5047008;28;20278;-69
2023/05/04 14:08:25;;;;;;;1.13;0.57;;;25.00;99.90;28.80;101289.00;;;;5023271;28;20270;-68
2023/05/04 14:10:51;;;;;;;3.28;1.05;;;25.40;99.90;29.10;101298.00;;;;5031632;28;20649;-68
2023/05/04 14:13:17;;;;;;;3.60;1.75;;;25.60;99.90;28.90;101289.00;;;;5031968;28;20215;-68
2023/05/04 14:15:46;;;;;;;1.85;1.75;;;25.60;99.90;28.50;101290.00;;;;5032829;28;20612;-68
2023/05/04 14:18:22;;;;;;;2.35;0.70;;;25.30;99.90;28.50;101287.00;;;;5031627;28;20187;-69
2023/05/04 14:21:05;;;;;;;1.83;1.50;;;25.20;99.90;28.30;101277.00;;;;5032094;28;20191;-68
2023/05/04 14:24:07;;;;;;;2.40;0.85;;;25.10;99.90;28.90;101267.00;;;;5031458;28;20182;-68
2023/05/04 14:26:42;;;;;;;1.45;1.35;;;25.20;99.90;29.20;101269.00;;;;5031808;28;20281;-68
2023/05/04 14:29:09;;;;;;;1.35;1.20;;;25.40;99.90;28.70;101266.00;;;;5024154;28;20637;-68
2023/05/04 14:31:53;;;;;;;1.38;1.05;;;25.20;99.90;28.80;101268.00;;;;5031504;28;20305;-68
2023/05/04 14:34:45;;;;;;;1.23;1.13;;;25.30;99.90;28.70;101259.00;;;;5031674;28;20218;-68
2023/05/04 14:37:29;;;;;;;0.80;0.38;;;25.40;99.90;29.40;101251.00;;;;5031281;28;20209;-68
2023/05/04 14:39:55;;;;;;;4.13;1.98;;;25.70;99.90;29.30;101232.00;;;;5022554;28;20191;-68
2023/05/04 14:42:23;;;;;;;0.93;0.93;;;25.90;99.90;28.60;101268.00;;;;5062268;28;20224;-68
2023/05/04 14:44:49;;;;;;;1.05;1.05;;;25.50;99.90;28.70;101263.00;;;;5033160;28;20190;-68
2023/05/04 14:47:16;;;;;;;0.57;0.50;;;25.50;99.90;28.70;101253.00;;;;5031476;28;20256;-68
2023/05/04 14:49:52;;;;;;;1.33;1.23;;;25.40;99.90;29.10;101257.00;;;;5031518;28;20241;-68
2023/05/04 14:52:17;;;;;;;1.20;1.05;;;25.50;99.90;28.60;101260.00;;;;5028060;28;20206;-68
2023/05/04 14:55:11;;;;;;;2.13;0.88;;;25.40;99.90;28.40;101211.00;;;;5026883;28;20598;-68
2023/05/04 14:57:37;;;;;;;0.80;0.60;;;25.20;99.90;28.60;101249.00;;;;5031603;28;20187;-68
2023/05/04 15:00:08;;;;;;;1.27;0.75;;;25.20;99.90;28.70;101215.00;;;;5014584;28;20186;-68
2023/05/04 15:02:37;;;;;;;0.60;0.60;;;25.30;99.90;28.90;101258.00;;;;5031440;28;20195;-68
2023/05/04 15:05:26;;;;;;;1.13;1.02;;;25.20;99.90;29.00;101251.00;;;;5028501;28;20194;-68
2023/05/04 15:07:52;;;;;;;0.98;0.98;;;25.30;99.90;29.00;101256.00;;;;5031514;28;20179;-68
2023/05/04 15:10:26;;;;;;;0.73;0.73;;;25.40;99.90;28.80;101217.00;;;;5032367;28;20192;-69
2023/05/04 15:13:03;;;;;;;0.70;0.70;;;25.30;99.90;28.70;101261.00;;;;5032495;28;20210;-68
2023/05/04 15:15:29;;;;;;;0.68;0.65;;;25.10;99.90;28.80;101251.00;;;;5011873;28;20186;-68
2023/05/04 15:17:54;;;;;;;0.10;0.10;;;25.10;99.90;29.30;101250.00;;;;5031820;28;20183;-68
2023/05/04 15:20:21;;;;;;;0.30;0.30;;;25.20;99.90;29.10;101256.00;;;;5035941;28;20193;-68
2023/05/04 15:22:54;;;;;;;0.70;0.70;;;25.50;99.90;28.60;101267.00;;;;5035254;28;20186;-68
2023/05/04 15:25:24;;;;;;;0.17;0.17;;;25.40;99.90;29.20;101262.00;;;;5034979;28;20193;-68
2023/05/04 15:27:53;;;;;;;0.50;0.28;;;25.40;99.90;30.20;101250.00;;;;5035283;28;20187;-68
2023/05/04 15:30:19;;;;;;;0.60;0.60;;;25.80;99.90;29.40;101248.00;;;;5036116;28;20222;-68
2023/05/04 15:32:45;;;;;;;0.22;0.22;;;25.80;99.90;29.50;101240.00;;;;5034521;28;20582;-68
2023/05/04 15:35:11;;;;;;;0.20;0.20;;;25.80;99.90;29.60;101234.00;;;;5034935;28;20270;-68
2023/05/04 15:37:39;;;;;;;0.10;0.10;;;25.70;99.90;29.10;101204.00;;;;5018335;28;20195;-68
2023/05/04 15:40:27;;;;;;;0.43;0.43;;;25.70;99.90;29.00;101244.00;;;;5035019;28;20182;-68
2023/05/04 15:42:53;;;;;;;0.43;0.43;;;25.60;99.90;29.60;101250.00;;;;5034911;28;20274;-68
2023/05/04 15:45:20;;;;;;;0.10;0.10;;;25.70;99.90;29.30;101241.00;;;;5034366;28;20203;-68
2023/05/04 15:47:46;;;;;;;0.20;0.20;;;25.70;99.90;29.00;101233.00;;;;5034490;28;20241;-68
2023/05/04 15:50:12;;;;;;;2.05;1.52;;;25.70;99.90;28.70;101232.00;;;;5034554;28;20190;-68
2023/05/04 15:52:38;;;;;;;0.57;0.45;;;25.40;99.90;29.70;101231.00;;;;5035579;28;20253;-68
2023/05/04 15:55:05;;;;;;;1.15;1.15;;;25.50;99.90;29.80;101224.00;;;;5018505;28;20184;-68
2023/05/04 15:57:34;;;;;;;0.90;0.35;;;25.70;99.90;29.70;101232.00;;;;5031662;28;20593;-68
2023/05/04 16:00:02;;;;;;;0.68;0.30;;;25.80;99.90;29.30;101238.00;;;;5034215;28;20257;-69
2023/05/04 16:02:28;;;;;;;0.55;0.55;;;25.60;99.90;29.90;101212.00;;;;5050782;28;20210;-69
2023/05/04 16:04:54;;;;;;;0.30;0.30;;;25.70;99.90;29.10;101220.00;;;;5035091;28;20187;-69
2023/05/04 16:07:20;;;;;;;1.05;0.75;;;25.50;99.90;29.00;101191.00;;;;5035369;28;20193;-68
2023/05/04 16:09:46;;;;;;;0.20;0.20;;;25.40;99.90;29.80;101225.00;;;;5033971;28;20187;-68
2023/05/04 16:12:12;;;;;;;0.32;0.32;;;25.50;99.90;29.50;101230.00;;;;5035256;28;20676;-68
2023/05/04 16:14:47;;;;;;;0.17;0.17;;;25.70;99.90;29.40;101227.00;;;;5034315;28;20183;-69
2023/05/04 16:17:13;;;;;;;0.47;0.47;;;25.60;99.90;29.00;101227.00;;;;5033757;28;20186;-69
2023/05/04 16:19:41;;;;;;;0.28;0.28;;;25.40;99.90;29.70;101209.00;;;;5034206;28;20187;-69
2023/05/04 16:22:10;;;;;;;0.22;0.22;;;25.50;99.90;28.90;101236.00;;;;5035091;28;20187;-69
2023/05/04 16:24:36;;;;;;;0.30;0.30;;;25.50;99.90;29.10;101232.00;;;;5034079;28;20222;-69
2023/05/04 16:27:02;;;;;;;0.10;0.10;;;25.30;99.90;29.50;101228.00;;;;5034883;28;20711;-68
2023/05/04 16:29:35;;;;;;;0.10;0.10;;;25.40;99.90;29.40;101211.00;;;;5033544;28;20193;-68
2023/05/04 16:32:01;;;;;;;0.70;0.57;;;25.60;99.90;29.70;101213.00;;;;5028746;28;20210;-68
2023/05/04 16:34:27;;;;;;;0.47;0.47;;;25.60;99.90;29.60;101223.00;;;;5033470;28;20277;-68
2023/05/04 16:36:53;;;;;;;0.10;0.10;;;25.70;99.90;30.00;101196.00;;;;5017177;28;20744;-68
2023/05/04 16:39:37;;;;;;;0.30;0.30;;;25.80;99.90;29.60;101219.00;;;;5034014;28;20290;-68
2023/05/04 16:42:06;;;;;;;1.02;1.02;;;25.90;99.90;29.50;101212.00;;;;5033392;28;20183;-68
2023/05/04 16:44:32;;;;;;;0.10;0.10;;;25.70;99.90;29.80;101209.00;;;;5035233;28;20189;-68
2023/05/04 16:46:59;;;;;;;0.35;0.35;;;25.70;99.90;29.50;101197.00;;;;5035425;28;20544;-68
2023/05/04 16:50:10;;;;;;;0.35;0.30;;;25.80;99.90;28.80;101172.00;;;;5033532;28;20193;-68
2023/05/04 16:52:58;;;;;;;0.10;0.10;;;25.60;99.90;29.70;101212.00;;;;5031964;28;20256;-68
2023/05/04 16:55:44;;;;;;;0.15;0.15;;;25.60;99.90;29.40;101213.00;;;;5034263;28;20228;-68
2023/05/04 16:58:37;;;;;;;0.10;0.10;;;25.70;99.90;30.20;101206.00;;;;5033275;28;20653;-68
2023/05/04 17:01:33;;;;;;;0.20;0.20;;;25.90;99.90;30.70;101214.00;;;;5029654;28;20185;-68
2023/05/04 17:04:28;;;;;;;1.13;1.13;;;26.10;99.90;30.50;101211.00;;;;5032893;28;20261;-68
2023/05/04 17:07:22;;;;;;;0.10;0.10;;;26.20;99.90;29.70;101179.00;;;;5032301;28;20671;-68
2023/05/04 17:09:57;;;;;;;0.10;0.10;;;25.70;99.90;30.00;101214.00;;;;5025461;28;20183;-69
2023/05/04 17:12:43;;;;;;;0.10;0.10;;;25.90;99.90;30.60;101210.00;;;;5032924;28;20276;-68
2023/05/04 17:15:47;;;;;;;0.55;0.35;;;26.00;99.90;29.30;101225.00;;;;5032985;28;20191;-68
2023/05/04 17:18:24;;;;;;;0.20;0.20;;;25.60;99.90;29.50;101209.00;;;;5032024;28;20680;-68
2023/05/04 17:21:10;;;;;;;0.13;0.13;;;25.60;99.90;30.10;101221.00;;;;5013820;28;20198;-68
2023/05/04 17:24:11;;;;;;;0.10;0.10;;;25.90;99.90;30.60;101209.00;;;;5006153;28;20191;-68
2023/05/04 17:27:00;;;;;;;0.10;0.10;;;26.00;99.90;29.10;101232.00;;;;5027851;28;20190;-68
2023/05/04 17:29:55;;;;;;;0.10;0.10;;;25.80;99.90;29.70;101227.00;;;;5047021;28;20522;-68
2023/05/04 17:32:31;;;;;;;0.35;0.35;;;25.60;99.90;29.20;101229.00;;;;5017259;28;20445;-68
2023/05/04 17:35:07;;;;;;;0.10;0.10;;;25.50;99.90;29.60;101235.00;;;;5016640;28;20175;-68
2023/05/04 17:37:51;;;;;;;0.10;0.10;;;25.50;99.90;29.00;101226.00;;;;5031251;28;20195;-68
2023/05/04 17:40:43;;;;;;;0.10;0.10;;;25.40;99.90;29.00;101244.00;;;;5033527;28;20277;-68
2023/05/04 17:43:32;;;;;;;0.10;0.10;;;25.20;99.90;29.60;101238.00;;;;5032262;28;20187;-68
2023/05/04 17:46:06;;;;;;;1.45;1.35;;;25.30;99.90;29.20;101252.00;;;;5029156;28;20182;-68
2023/05/04 17:48:55;;;;;;;0.10;0.10;;;25.40;99.90;28.40;101253.00;;;;5035721;28;20191;-68
2023/05/04 17:51:49;;;;;;;0.10;0.10;;;25.00;99.90;29.50;101256.00;;;;5026523;28;20636;-68
2023/05/04 17:54:35;;;;;;;0.28;0.28;;;25.20;99.90;28.30;101263.00;;;;5031807;28;20199;-69
2023/05/04 17:57:26;;;;;;;0.15;0.15;;;25.00;99.90;29.60;101259.00;;;;5025203;28;20179;-69
2023/05/04 18:00:12;;;;;;;0.10;0.10;;;25.20;99.90;29.30;101257.00;;;;5033433;28;20187;-68
2023/05/04 18:02:56;;;;;;;0.10;0.10;;;25.40;99.90;30.10;101255.00;;;;5032318;28;20563;-68
2023/05/04 18:05:47;;;;;;;22.48;16.35;;;25.50;99.90;30.00;101265.00;;;;5032181;28;20273;-68
2023/05/04 18:08:38;;;;;;;0.10;0.10;;;25.70;99.90;29.40;101267.00;;;;5031912;28;20203;-68
2023/05/04 18:11:27;;;;;;;0.10;0.10;;;25.50;99.90;29.90;101265.00;;;;5032172;28;20191;-68
2023/05/04 18:14:09;;;;;;;0.15;0.15;;;25.30;99.90;28.80;101233.00;;;;5059757;28;20598;-68
2023/05/04 18:16:42;;;;;;;0.38;0.38;;;25.10;99.90;28.20;101266.00;;;;5031576;28;20186;-68
2023/05/04 18:19:23;;;;;;;0.40;0.40;;;24.60;99.90;27.80;101269.00;;;;5032254;28;20190;-68
2023/05/04 18:22:26;;;;;;;0.60;0.60;;;24.40;99.90;27.60;101287.00;;;;5032127;28;20224;-68
2023/05/04 18:25:19;;;;;;;1.27;1.27;;;24.10;99.90;28.80;101288.00;;;;5019861;28;20172;-68